Maurepas, Louisiana
Current Conditions -  °F | °C
As of 4:55 PM on Friday 28 Nov 2014 (Local Time) from K1L0 Reporting Station
Clear Clear  
Wind Chill: 55°   Ceiling: Unl
Heat Index: 55°   Visibility: 10mi
Dew Point: 44°   Wind: 6mph
Humidity: 67%   Direction: 70°ENE
Pressure: 30.29"   Gusts: NA
Location:  30.3°N, 90.66°W
Report Text: K1L0 282255Z AUTO 07005KT 10SM CLR 13/07 A3029 RMK AO2 T01290068
Loading
Personal Weather Stations






























Interactive Weather Map New forecast layout! Learn more

10-Day Weather Forecast

Advertisements
Track Severe Weather on mobile